createdAt,value
2023-04-18T00:03:16.129Z,95759.97
2023-04-18T00:08:18.970Z,95753.66
2023-04-18T00:13:21.733Z,95749.59
2023-04-18T00:18:26.885Z,95748.31
2023-04-18T00:23:30.452Z,95751.72
2023-04-18T00:28:32.815Z,95757.50
2023-04-18T00:33:35.580Z,95743.84
2023-04-18T00:38:38.361Z,95748.59
2023-04-18T00:43:43.113Z,95768.41
2023-04-18T00:48:45.476Z,95754.06
2023-04-18T00:53:48.311Z,95727.94
2023-04-18T00:58:50.909Z,95722.50
2023-04-18T01:03:54.074Z,95718.97
2023-04-18T01:08:57.060Z,95748.66
2023-04-18T01:14:05.888Z,95751.56
2023-04-18T01:19:11.835Z,95751.06
2023-04-18T01:24:18.294Z,95747.53
2023-04-18T01:29:21.100Z,95738.47
2023-04-18T01:34:25.404Z,95746.63
2023-04-18T01:39:29.202Z,95719.19
2023-04-18T01:44:31.959Z,95699.88
2023-04-18T01:49:34.155Z,95720.28
2023-04-18T01:54:36.792Z,95730.53
2023-04-18T01:59:39.417Z,95708.84
2023-04-18T02:04:42.851Z,95733.03
2023-04-18T02:09:45.823Z,95734.44
2023-04-18T02:14:52.902Z,95753.34
2023-04-18T02:19:55.815Z,95758.47
2023-04-18T02:24:58.525Z,95747.81
2023-04-18T02:30:01.220Z,95751.81
2023-04-18T02:35:04.201Z,95712.06
2023-04-18T02:40:07.508Z,95758.75
2023-04-18T02:45:10.768Z,95745.66
2023-04-18T02:50:13.138Z,95745.88
2023-04-18T02:55:15.526Z,95757.28
2023-04-18T03:00:20.260Z,95767.22
2023-04-18T03:05:34.879Z,95775.94
2023-04-18T03:10:40.361Z,95776.41
2023-04-18T03:15:44.036Z,95757.59
2023-04-18T03:20:47.113Z,95760.03
2023-04-18T03:25:51.798Z,95798.81
2023-04-18T03:30:55.484Z,95804.44
2023-04-18T03:35:59.697Z,95776.75
2023-04-18T03:41:02.809Z,95799.66
2023-04-18T03:46:09.333Z,95806.59
2023-04-18T03:51:12.740Z,95834.69
2023-04-18T03:56:15.586Z,95800.94
2023-04-18T04:01:25.746Z,95818.56
2023-04-18T04:06:29.656Z,95812.88
2023-04-18T04:11:32.367Z,95829.34
2023-04-18T04:16:35.138Z,95801.16
2023-04-18T04:21:38.773Z,95817.81
2023-04-18T04:26:44.744Z,95823.69
2023-04-18T04:31:54.216Z,95816.09
2023-04-18T04:37:05.432Z,95826.75
2023-04-18T04:42:14.479Z,95847.94
2023-04-18T04:47:27.777Z,95860.88
2023-04-18T04:52:32.625Z,95848.88
2023-04-18T04:57:38.790Z,95838.53
2023-04-18T05:02:57.875Z,95869.41
2023-04-18T05:08:02.439Z,95836.16
2023-04-18T05:13:05.640Z,95847.06
2023-04-18T05:24:48.137Z,95849.66
2023-04-18T05:29:51.248Z,95835.50
2023-04-18T05:34:53.937Z,95839.91
2023-04-18T05:39:57.849Z,95812.66
2023-04-18T05:45:02.246Z,95856.06
2023-04-18T05:50:04.763Z,95864.19
2023-04-18T05:55:07.952Z,95855.03
2023-04-18T06:00:14.263Z,95828.44
2023-04-18T06:05:17.374Z,95834.91
2023-04-18T06:10:20.335Z,95813.44
2023-04-18T06:15:23.021Z,95831.94
2023-04-18T06:20:25.884Z,95837.69
2023-04-18T06:25:28.742Z,95832.53
2023-04-18T06:30:31.522Z,95792.75
2023-04-18T06:35:34.141Z,95800.25
2023-04-18T06:40:36.872Z,95802.78
2023-04-18T06:45:39.493Z,95790.06
2023-04-18T06:50:42.349Z,95792.41
2023-04-18T06:55:45.255Z,95764.59
2023-04-18T07:00:52.202Z,95778.34
2023-04-18T07:05:55.928Z,95774.22
2023-04-18T07:10:58.711Z,95774.53
2023-04-18T07:16:01.817Z,95762.97
2023-04-18T07:21:07.878Z,95772.81
2023-04-18T07:26:13.949Z,95781.19
2023-04-18T07:31:16.993Z,95784.19
2023-04-18T07:36:19.978Z,95791.09
2023-04-18T07:41:22.774Z,95784.56
2023-04-18T07:46:25.572Z,95802.47
2023-04-18T07:51:32.045Z,95803.50
2023-04-18T07:56:34.918Z,95790.19
2023-04-18T08:01:37.256Z,95820.31
2023-04-18T08:06:39.926Z,95780.59
2023-04-18T08:11:43.684Z,95829.97
2023-04-18T08:16:46.730Z,95786.16
2023-04-18T08:21:52.532Z,95829.13
2023-04-18T08:26:54.969Z,95829.13
2023-04-18T08:31:57.888Z,95802.81
2023-04-18T08:37:00.540Z,95799.09
2023-04-18T08:42:06.641Z,95836.69
2023-04-18T08:47:10.188Z,95839.59
2023-04-18T08:52:14.692Z,95847.94
2023-04-18T08:57:23.972Z,95800.47
2023-04-18T09:02:45.260Z,95819.72
2023-04-18T09:07:49.773Z,95788.19
2023-04-18T09:12:52.553Z,95825.78
2023-04-18T09:18:02.629Z,95800.81
2023-04-18T09:23:15.008Z,95838.13
2023-04-18T09:28:29.205Z,95820.66
2023-04-18T09:33:33.323Z,95845.03
2023-04-18T09:38:41.453Z,95824.25
2023-04-18T09:43:46.281Z,95815.53
2023-04-18T09:48:49.257Z,95826.09
2023-04-18T09:53:52.860Z,95786.91
2023-04-18T09:59:09.983Z,95814.66
2023-04-18T10:04:14.026Z,95821.28
2023-04-18T10:09:17.679Z,95822.69
2023-04-18T10:14:20.961Z,95834.13
2023-04-18T10:19:26.270Z,95799.16
2023-04-18T10:24:53.691Z,95864.78
2023-04-18T10:29:56.882Z,95883.03
2023-04-18T10:35:01.034Z,95915.59
2023-04-18T10:40:07.293Z,95908.53
2023-04-18T10:45:23.878Z,95931.19
2023-04-18T10:50:26.678Z,95920.81
2023-04-18T10:55:32.030Z,95912.66
2023-04-18T11:00:35.002Z,95924.19
2023-04-18T11:05:37.841Z,95916.47
2023-04-18T11:10:41.059Z,95917.94
2023-04-18T11:15:43.802Z,95886.88
2023-04-18T11:20:51.113Z,95917.41
2023-04-18T11:25:57.035Z,95899.06
2023-04-18T11:31:03.183Z,95899.38
2023-04-18T11:36:06.353Z,95917.41
2023-04-18T11:41:15.738Z,95900.72
2023-04-18T11:46:18.672Z,95892.75
2023-04-18T11:51:45.145Z,95903.13
2023-04-18T11:56:49.156Z,95879.94
2023-04-18T12:02:14.803Z,95888.81
2023-04-18T12:07:33.552Z,95881.22
2023-04-18T12:12:36.833Z,95856.09
2023-04-18T12:17:40.134Z,95880.69
2023-04-18T12:22:49.832Z,95863.16
2023-04-18T12:28:01.093Z,95845.66
2023-04-18T12:33:04.524Z,95861.97
2023-04-18T12:38:07.193Z,95824.03
2023-04-18T12:43:10.000Z,95833.97
2023-04-18T12:48:12.989Z,95866.91
2023-04-18T12:53:15.268Z,95852.47
2023-04-18T12:58:19.045Z,95858.97
2023-04-18T13:03:21.943Z,95874.22
2023-04-18T13:08:24.992Z,95857.19
2023-04-18T13:13:27.923Z,95871.28
2023-04-18T13:18:30.769Z,95882.03
2023-04-18T13:23:33.550Z,95894.78
2023-04-18T13:28:36.426Z,95869.63
2023-04-18T13:33:40.661Z,95852.28
2023-04-18T13:38:43.319Z,95865.41
2023-04-18T13:43:46.101Z,95887.47
2023-04-18T13:48:48.404Z,95892.13
2023-04-18T13:53:52.052Z,95848.66
2023-04-18T13:58:55.146Z,95884.78
2023-04-18T14:03:58.251Z,95837.09
2023-04-18T14:09:01.111Z,95840.84
2023-04-18T14:14:04.015Z,95838.75
2023-04-18T14:19:06.971Z,95867.16
2023-04-18T14:24:10.023Z,95820.72
2023-04-18T14:29:14.629Z,95844.44
2023-04-18T14:34:17.449Z,95844.59
2023-04-18T14:39:20.251Z,95862.75
2023-04-18T14:44:23.010Z,95864.53
2023-04-18T14:49:26.534Z,95848.47
2023-04-18T14:54:30.475Z,95830.50
2023-04-18T14:59:34.825Z,95838.19
2023-04-18T15:04:37.956Z,95864.16
2023-04-18T15:09:41.102Z,95810.88
2023-04-18T15:14:43.390Z,95850.59
2023-04-18T15:19:46.844Z,95863.69
2023-04-18T15:24:49.364Z,95880.75
2023-04-18T15:29:53.089Z,95837.31
2023-04-18T15:34:55.753Z,95854.34
2023-04-18T15:39:58.476Z,95842.06
2023-04-18T15:45:01.328Z,95804.97
2023-04-18T15:50:04.391Z,95845.03
2023-04-18T15:55:07.724Z,95875.97
2023-04-18T16:00:16.389Z,95846.38
2023-04-18T16:05:19.729Z,95813.69
2023-04-18T16:10:24.771Z,95867.53
2023-04-18T16:15:32.380Z,95872.22
2023-04-18T16:20:34.942Z,95885.31
2023-04-18T16:25:37.639Z,95860.88
2023-04-18T16:30:40.401Z,95868.41
2023-04-18T16:35:43.316Z,95892.00
2023-04-18T16:40:46.189Z,95898.66
2023-04-18T16:45:48.891Z,95904.84
2023-04-18T16:50:51.755Z,95890.00
2023-04-18T16:55:54.919Z,95887.38
2023-04-18T17:00:57.723Z,95892.22
2023-04-18T17:06:01.792Z,95917.28
2023-04-18T17:11:04.757Z,95905.22
2023-04-18T17:16:07.808Z,95903.91
2023-04-18T17:21:12.856Z,95896.81
2023-04-18T17:26:15.574Z,95911.97
2023-04-18T17:31:18.307Z,95919.81
2023-04-18T17:36:21.642Z,95918.22
2023-04-18T17:41:24.500Z,95906.91
2023-04-18T17:46:27.137Z,95924.75
2023-04-18T17:51:33.150Z,95929.88
2023-04-18T17:56:44.343Z,95948.63
2023-04-18T18:01:48.821Z,95936.00
2023-04-18T18:06:55.769Z,95946.78
2023-04-18T18:11:59.316Z,95919.56
2023-04-18T18:17:02.940Z,95941.03
2023-04-18T18:22:06.921Z,95941.94
2023-04-18T18:27:12.947Z,95915.63
2023-04-18T18:32:17.291Z,95915.81
2023-04-18T18:37:23.636Z,95930.84
2023-04-18T18:42:26.509Z,95922.56
2023-04-18T18:47:32.052Z,95924.69
2023-04-18T18:52:39.500Z,95930.81
2023-04-18T18:57:45.318Z,95914.22
2023-04-18T19:02:51.440Z,95934.50
2023-04-18T19:07:57.596Z,95884.16
2023-04-18T19:13:03.882Z,95882.97
2023-04-18T19:18:09.661Z,95909.84
2023-04-18T19:23:19.662Z,95902.66
2023-04-18T19:33:45.298Z,95892.66
2023-04-18T19:38:51.081Z,95906.22
2023-04-18T19:44:00.217Z,95895.00
2023-04-18T19:49:04.794Z,95888.25
2023-04-18T19:54:15.218Z,95880.63
2023-04-18T19:59:25.744Z,95881.00
2023-04-18T20:04:29.206Z,95885.56
2023-04-18T20:09:39.875Z,95892.97
2023-04-18T20:14:45.125Z,95868.78
2023-04-18T20:19:54.075Z,95884.00
2023-04-18T20:24:58.203Z,95882.31
2023-04-18T20:30:05.663Z,95890.06
2023-04-18T20:35:13.833Z,95899.22
2023-04-18T20:40:16.882Z,95892.31
2023-04-18T20:45:19.836Z,95885.31
2023-04-18T20:50:25.665Z,95898.56
2023-04-18T20:55:32.690Z,95867.00
2023-04-18T21:00:40.952Z,95855.97
2023-04-18T21:05:44.247Z,95901.00
2023-04-18T21:10:47.580Z,95871.38
2023-04-18T21:15:56.755Z,95856.91
2023-04-18T21:21:04.179Z,95878.34
2023-04-18T21:26:13.909Z,95849.03
2023-04-18T21:31:19.971Z,95845.88
2023-04-18T21:36:28.777Z,95877.63
2023-04-18T21:41:33.956Z,95858.00
2023-04-18T21:46:36.853Z,95879.16
2023-04-18T21:51:43.054Z,95851.31
2023-04-18T21:56:47.957Z,95859.16
2023-04-18T22:01:53.092Z,95852.59
2023-04-18T22:06:59.097Z,95862.59
2023-04-18T22:12:08.367Z,95878.56
2023-04-18T22:17:18.879Z,95861.34
